createdAt,value
2019-06-27T00:00:54.583Z,69.94
2019-06-27T00:03:25.174Z,70.77
2019-06-27T00:06:17.110Z,70.77
2019-06-27T00:08:50.556Z,71.25
2019-06-27T00:11:20.970Z,71.25
2019-06-27T00:13:51.363Z,71.62
2019-06-27T00:16:22.239Z,71.79
2019-06-27T00:18:52.851Z,71.74
2019-06-27T00:21:23.197Z,72.12
2019-06-27T00:23:55.094Z,72.09
2019-06-27T00:26:25.506Z,71.53
2019-06-27T00:29:20.717Z,71.74
2019-06-27T00:32:38.533Z,71.87
2019-06-27T00:35:23.389Z,72.39
2019-06-27T00:38:00.092Z,72.47
2019-06-27T00:40:37.815Z,72.83
2019-06-27T00:43:13.524Z,72.86
2019-06-27T00:45:43.907Z,73.24
2019-06-27T00:48:14.556Z,73.13
2019-06-27T00:50:45.905Z,73.59
2019-06-27T00:53:16.762Z,73.77
2019-06-27T00:56:12.980Z,74.14
2019-06-27T00:58:44.725Z,74.09
2019-06-27T01:01:15.460Z,74.33
2019-06-27T01:03:46.383Z,74.38
2019-06-27T01:06:16.980Z,74.63
2019-06-27T01:08:49.566Z,74.81
2019-06-27T01:11:20.146Z,74.85
2019-06-27T01:13:50.813Z,75.15
2019-06-27T01:16:21.451Z,75.16
2019-06-27T01:18:52.335Z,75.52
2019-06-27T01:21:22.942Z,75.68
2019-06-27T01:23:54.938Z,75.73
2019-06-27T01:26:25.520Z,76.12
2019-06-27T01:28:57.795Z,76.12
2019-06-27T01:31:29.682Z,76.05
2019-06-27T01:34:00.055Z,76.39
2019-06-27T01:36:32.497Z,76.39
2019-06-27T01:39:02.942Z,76.27
2019-06-27T01:41:33.757Z,76.28
2019-06-27T01:44:05.864Z,76.21
2019-06-27T01:46:46.532Z,76.32
2019-06-27T01:53:08.665Z,76.19
2019-06-27T01:56:07.649Z,76.46
2019-06-27T01:58:38.638Z,76.88
2019-06-27T02:01:09.187Z,76.68
2019-06-27T02:03:39.634Z,77.18
2019-06-27T02:06:10.437Z,77.05
2019-06-27T02:08:43.411Z,76.40
2019-06-27T02:11:14.222Z,76.11
2019-06-27T02:13:44.826Z,76.18
2019-06-27T02:16:15.154Z,76.05
2019-06-27T02:18:46.481Z,75.59
2019-06-27T02:21:17.080Z,75.06
2019-06-27T02:23:58.819Z,74.80
2019-06-27T02:26:32.135Z,74.46
2019-06-27T02:29:03.001Z,74.28
2019-06-27T02:31:33.479Z,74.29
2019-06-27T02:34:06.832Z,74.08
2019-06-27T02:36:36.744Z,74.04
2019-06-27T02:39:07.470Z,73.89
2019-06-27T02:41:38.216Z,73.92
2019-06-27T02:44:09.054Z,73.89
2019-06-27T02:46:40.410Z,74.22
2019-06-27T02:50:02.976Z,74.16
2019-06-27T02:53:00.016Z,74.18
2019-06-27T02:56:00.049Z,74.03
2019-06-27T02:58:43.184Z,73.96
2019-06-27T03:01:17.978Z,73.94
2019-06-27T03:03:54.076Z,73.78
2019-06-27T03:06:34.929Z,73.93
2019-06-27T03:09:02.949Z,73.91
2019-06-27T03:11:35.504Z,73.76
2019-06-27T03:14:06.577Z,73.76
2019-06-27T03:16:37.349Z,73.30
2019-06-27T03:19:09.140Z,73.13
2019-06-27T03:21:40.774Z,72.86
2019-06-27T03:24:11.640Z,73.11
2019-06-27T03:26:42.739Z,73.14
2019-06-27T03:29:22.256Z,72.88
2019-06-27T03:31:52.408Z,72.70
2019-06-27T03:37:03.191Z,72.48
2019-06-27T03:39:34.050Z,72.34
2019-06-27T03:42:06.033Z,72.31
2019-06-27T03:44:36.751Z,72.04
2019-06-27T03:47:08.416Z,71.85
2019-06-27T03:49:38.821Z,71.71
2019-06-27T03:52:09.505Z,71.71
2019-06-27T03:55:33.531Z,71.60
2019-06-27T03:58:38.519Z,71.49
2019-06-27T04:01:27.212Z,71.33
2019-06-27T04:04:01.250Z,71.34
2019-06-27T04:06:33.689Z,71.30
2019-06-27T04:09:23.831Z,70.73
2019-06-27T04:13:06.065Z,70.71
2019-06-27T04:15:57.475Z,70.52
2019-06-27T04:18:35.878Z,70.06
2019-06-27T04:21:26.560Z,70.09
2019-06-27T04:24:18.289Z,69.98
2019-06-27T04:26:56.582Z,69.93
2019-06-27T04:29:34.053Z,69.86
2019-06-27T04:32:07.053Z,69.46
2019-06-27T04:34:39.440Z,69.26
2019-06-27T04:37:10.032Z,68.94
2019-06-27T04:39:40.630Z,68.80
2019-06-27T04:42:11.437Z,68.66
2019-06-27T04:44:42.000Z,68.73
2019-06-27T04:47:12.720Z,68.72
2019-06-27T04:49:43.637Z,68.60
2019-06-27T04:53:11.237Z,68.50
2019-06-27T04:56:31.920Z,67.39
2019-06-27T04:59:20.485Z,67.39
2019-06-27T05:01:58.530Z,67.15
2019-06-27T05:05:21.952Z,66.80
2019-06-27T05:08:51.661Z,66.80
2019-06-27T05:11:52.213Z,66.76
2019-06-27T05:14:57.733Z,66.54
2019-06-27T05:18:10.791Z,66.07
2019-06-27T05:20:52.975Z,65.83
2019-06-27T05:23:30.353Z,66.11
2019-06-27T05:26:08.967Z,66.52
2019-06-27T05:28:44.874Z,66.92
2019-06-27T05:31:31.839Z,67.24
2019-06-27T05:34:07.234Z,67.19
2019-06-27T05:36:38.978Z,67.08
2019-06-27T05:39:09.729Z,66.09
2019-06-27T05:41:40.407Z,66.09
2019-06-27T05:44:13.540Z,66.22
2019-06-27T05:46:51.620Z,65.81
2019-06-27T05:49:22.145Z,64.82
2019-06-27T05:51:52.818Z,63.91
2019-06-27T05:54:51.145Z,62.82
2019-06-27T05:57:29.056Z,62.82
2019-06-27T06:00:02.028Z,62.53
2019-06-27T06:02:33.956Z,62.20
2019-06-27T06:05:05.235Z,62.02
2019-06-27T06:08:01.299Z,61.78
2019-06-27T06:10:47.592Z,61.72
2019-06-27T06:13:50.958Z,61.50
2019-06-27T06:16:33.899Z,61.64
2019-06-27T06:19:08.555Z,61.23
2019-06-27T06:21:45.635Z,60.79
2019-06-27T06:24:25.517Z,60.04
2019-06-27T06:26:57.680Z,61.04
2019-06-27T06:29:32.808Z,61.04
2019-06-27T06:32:04.794Z,60.77
2019-06-27T06:34:37.936Z,59.57
2019-06-27T06:37:09.890Z,59.57
2019-06-27T06:39:45.036Z,59.29
2019-06-27T06:42:15.636Z,59.27
2019-06-27T06:44:47.764Z,59.92
2019-06-27T06:47:32.430Z,57.59
2019-06-27T06:50:27.880Z,51.69
2019-06-27T06:53:09.163Z,52.26
2019-06-27T06:55:42.578Z,53.77
2019-06-27T06:58:17.227Z,53.61
2019-06-27T07:01:00.849Z,54.95
2019-06-27T07:03:22.559Z,56.17
2019-06-27T07:05:53.402Z,57.46
2019-06-27T07:08:23.711Z,57.85
2019-06-27T07:10:54.822Z,57.29
2019-06-27T07:13:25.297Z,55.63
2019-06-27T07:15:56.233Z,49.50
2019-06-27T07:18:26.877Z,45.85
2019-06-27T07:20:59.054Z,43.12
2019-06-27T07:23:29.683Z,41.88
2019-06-27T07:26:00.283Z,43.28
2019-06-27T07:28:31.199Z,44.90
2019-06-27T07:31:16.891Z,46.34
2019-06-27T07:33:33.878Z,45.58
2019-06-27T07:36:04.501Z,44.54
2019-06-27T07:38:35.185Z,39.18
2019-06-27T07:41:05.790Z,33.70
2019-06-27T07:43:36.382Z,30.83
2019-06-27T07:46:23.742Z,28.75
2019-06-27T07:48:39.399Z,26.60
2019-06-27T07:51:10.265Z,24.32
2019-06-27T07:53:41.421Z,23.29
2019-06-27T07:56:12.216Z,23.29
2019-06-27T07:58:42.831Z,22.38
2019-06-27T08:01:13.685Z,21.58
2019-06-27T08:03:44.020Z,20.70
2019-06-27T08:06:14.601Z,19.73
2019-06-27T08:08:45.203Z,17.82
2019-06-27T08:11:17.817Z,17.84
2019-06-27T08:13:48.423Z,16.84
2019-06-27T08:16:18.744Z,16.21
2019-06-27T08:18:49.617Z,16.74
2019-06-27T08:21:22.274Z,16.86
2019-06-27T08:23:53.105Z,15.32
2019-06-27T08:26:23.705Z,15.32
2019-06-27T08:28:54.414Z,15.74
2019-06-27T08:31:24.980Z,14.83
2019-06-27T08:33:55.552Z,14.83
2019-06-27T08:36:26.134Z,13.97
2019-06-27T08:38:56.747Z,14.82
2019-06-27T08:41:27.077Z,16.12
2019-06-27T08:43:57.668Z,15.68
2019-06-27T08:46:29.907Z,15.58
2019-06-27T08:49:01.961Z,16.51
2019-06-27T08:51:32.606Z,15.51
2019-06-27T08:54:03.241Z,14.61
2019-06-27T08:56:34.309Z,14.12
2019-06-27T08:59:05.457Z,14.26
2019-06-27T09:01:35.901Z,13.88
2019-06-27T09:04:07.586Z,13.88
2019-06-27T09:06:38.149Z,14.80
2019-06-27T09:09:10.455Z,14.80
2019-06-27T09:11:43.154Z,14.73
2019-06-27T09:14:13.778Z,14.34
2019-06-27T09:16:46.704Z,13.70
2019-06-27T09:19:16.648Z,13.22
2019-06-27T09:21:49.454Z,13.63
2019-06-27T09:24:20.154Z,13.03
2019-06-27T09:26:52.040Z,13.03
2019-06-27T09:29:22.720Z,12.79
2019-06-27T09:31:53.278Z,12.79
2019-06-27T09:34:23.997Z,14.80
2019-06-27T09:36:54.698Z,13.39
2019-06-27T09:39:27.109Z,13.24
2019-06-27T09:41:57.357Z,14.40
2019-06-27T09:44:27.931Z,16.02
2019-06-27T09:46:58.415Z,16.73
2019-06-27T09:49:29.037Z,15.49
2019-06-27T09:51:59.605Z,13.49
2019-06-27T09:54:30.470Z,13.49
2019-06-27T09:57:00.870Z,13.01
2019-06-27T09:59:31.512Z,13.01
2019-06-27T10:02:01.795Z,12.53
2019-06-27T10:04:32.158Z,14.42
2019-06-27T10:07:02.898Z,14.42
2019-06-27T10:09:33.444Z,14.09
2019-06-27T10:12:04.500Z,14.09
2019-06-27T10:14:37.386Z,12.33
2019-06-27T10:17:08.054Z,11.99
2019-06-27T10:19:39.249Z,12.53
2019-06-27T10:22:09.862Z,12.00
2019-06-27T10:24:40.170Z,10.98
2019-06-27T10:27:10.840Z,12.24
2019-06-27T10:29:42.013Z,12.39
2019-06-27T10:32:12.623Z,12.65
2019-06-27T10:34:43.227Z,13.55
2019-06-27T10:37:14.713Z,13.14
2019-06-27T10:39:45.571Z,12.49
2019-06-27T10:42:16.179Z,12.92
2019-06-27T10:44:46.729Z,13.34
2019-06-27T10:47:17.144Z,13.94
2019-06-27T10:49:47.699Z,14.56
2019-06-27T10:52:18.135Z,13.85
2019-06-27T10:54:48.735Z,13.52
2019-06-27T10:57:19.385Z,13.77
2019-06-27T10:59:49.972Z,13.49
2019-06-27T11:02:21.480Z,13.36
2019-06-27T11:04:52.321Z,13.46
2019-06-27T11:07:23.004Z,14.12
2019-06-27T11:09:53.722Z,14.89
2019-06-27T11:12:24.925Z,14.87
2019-06-27T11:14:59.553Z,15.42
2019-06-27T11:17:29.711Z,15.41
2019-06-27T11:20:00.578Z,17.99
2019-06-27T11:22:33.147Z,14.79
2019-06-27T11:27:39.609Z,14.67
2019-06-27T11:30:11.384Z,14.67
2019-06-27T11:32:42.849Z,13.85
2019-06-27T11:35:13.539Z,14.46
2019-06-27T11:37:46.671Z,15.64
2019-06-27T11:40:17.819Z,15.50
2019-06-27T11:42:48.461Z,16.54
2019-06-27T11:45:19.269Z,17.33
2019-06-27T11:47:51.552Z,15.77
2019-06-27T11:50:22.193Z,15.90
2019-06-27T11:52:55.091Z,16.58
2019-06-27T11:55:26.059Z,17.69
2019-06-27T11:57:56.873Z,17.56
2019-06-27T12:00:27.698Z,17.25
2019-06-27T12:02:59.069Z,16.54
2019-06-27T12:05:29.854Z,16.25
2019-06-27T12:08:01.624Z,17.19
2019-06-27T12:10:32.303Z,17.69
2019-06-27T12:13:02.919Z,17.82
2019-06-27T12:15:33.628Z,17.68
2019-06-27T12:18:04.090Z,17.78
2019-06-27T12:20:34.795Z,18.14
2019-06-27T12:25:41.730Z,18.11
2019-06-27T12:28:12.521Z,18.76
2019-06-27T12:30:43.297Z,19.48
2019-06-27T12:33:14.076Z,19.42
2019-06-27T12:35:44.662Z,19.32
2019-06-27T12:38:15.343Z,19.93
2019-06-27T12:40:47.434Z,21.30
2019-06-27T12:43:17.981Z,22.48
2019-06-27T12:45:48.496Z,22.99
2019-06-27T12:48:19.519Z,24.51
2019-06-27T12:50:51.274Z,25.37
2019-06-27T12:53:21.686Z,25.28
2019-06-27T12:55:52.516Z,25.22
2019-06-27T12:58:23.323Z,25.02
2019-06-27T13:00:55.720Z,25.36
2019-06-27T13:03:26.405Z,25.36
2019-06-27T13:05:57.641Z,26.42
2019-06-27T13:08:27.900Z,26.80
2019-06-27T13:11:00.927Z,26.76
2019-06-27T13:13:31.878Z,26.57
2019-06-27T13:16:03.708Z,27.43
2019-06-27T13:18:34.343Z,26.99
2019-06-27T13:21:05.040Z,26.11
2019-06-27T13:23:35.415Z,26.31
2019-06-27T13:26:06.010Z,25.72
2019-06-27T13:28:36.771Z,25.61
2019-06-27T13:31:07.440Z,25.88
2019-06-27T13:33:38.249Z,25.97
2019-06-27T13:36:08.860Z,25.89
2019-06-27T13:38:39.598Z,25.95
2019-06-27T13:41:10.215Z,26.25
2019-06-27T13:43:42.306Z,26.91
2019-06-27T13:46:12.839Z,27.29
2019-06-27T13:48:43.747Z,27.96
2019-06-27T13:51:31.455Z,28.41
2019-06-27T13:54:04.385Z,28.47
2019-06-27T13:56:35.194Z,28.32
2019-06-27T13:59:05.925Z,28.16
2019-06-27T14:01:36.859Z,28.76
2019-06-27T14:04:07.949Z,28.84
2019-06-27T14:06:41.232Z,28.46
2019-06-27T14:09:22.469Z,28.88
2019-06-27T14:11:43.914Z,28.71
2019-06-27T14:14:14.427Z,28.71
2019-06-27T14:16:45.076Z,29.01
2019-06-27T14:19:15.664Z,29.09
2019-06-27T14:21:46.020Z,28.60
2019-06-27T14:24:17.714Z,28.72
2019-06-27T14:26:48.564Z,28.51
2019-06-27T14:29:19.222Z,28.27
2019-06-27T14:31:50.082Z,29.31
2019-06-27T14:34:20.475Z,29.01
2019-06-27T14:36:54.239Z,29.05
2019-06-27T14:39:23.479Z,29.08
2019-06-27T14:41:54.249Z,29.12
2019-06-27T14:44:25.724Z,29.17
2019-06-27T14:46:56.629Z,29.16
2019-06-27T14:49:27.640Z,29.04
2019-06-27T14:51:58.677Z,29.06
2019-06-27T14:54:29.637Z,29.32
2019-06-27T14:57:00.257Z,29.32
2019-06-27T14:59:31.584Z,29.59
2019-06-27T15:02:02.594Z,29.89
2019-06-27T15:04:35.947Z,29.80
2019-06-27T15:07:06.510Z,29.77
2019-06-27T15:09:37.066Z,30.08
2019-06-27T15:12:07.396Z,30.21
2019-06-27T15:14:37.852Z,30.30
2019-06-27T15:17:13.593Z,30.18
2019-06-27T15:19:45.909Z,30.80
2019-06-27T15:22:17.693Z,31.15
2019-06-27T15:24:48.878Z,31.17
2019-06-27T15:27:20.087Z,31.08
2019-06-27T15:29:50.922Z,31.00
2019-06-27T15:32:21.420Z,30.82
2019-06-27T15:34:52.210Z,31.39
2019-06-27T15:37:23.020Z,31.14
2019-06-27T15:39:53.786Z,31.29
2019-06-27T15:42:24.200Z,30.97
2019-06-27T15:44:55.332Z,30.99
2019-06-27T15:47:26.015Z,30.68
2019-06-27T15:49:56.590Z,30.98
2019-06-27T15:52:27.180Z,31.02
2019-06-27T15:54:57.874Z,31.78
2019-06-27T15:57:28.160Z,31.98
2019-06-27T15:59:58.764Z,31.94
2019-06-27T16:02:29.231Z,32.23
2019-06-27T16:04:59.838Z,31.96
2019-06-27T16:07:30.468Z,31.67
2019-06-27T16:10:02.212Z,31.76
2019-06-27T16:12:33.626Z,32.29
2019-06-27T16:15:04.824Z,32.29
2019-06-27T16:17:35.248Z,32.21
2019-06-27T16:20:07.150Z,32.52
2019-06-27T16:22:37.937Z,32.28
2019-06-27T16:25:09.265Z,32.64
2019-06-27T16:27:42.049Z,32.62
2019-06-27T16:30:13.058Z,32.52
2019-06-27T16:32:43.638Z,31.30
2019-06-27T16:35:14.289Z,31.30
2019-06-27T16:37:46.405Z,31.15
2019-06-27T16:40:17.907Z,31.91
2019-06-27T16:42:48.520Z,32.02
2019-06-27T16:45:20.624Z,32.19
2019-06-27T16:47:51.194Z,32.54
2019-06-27T16:50:22.033Z,32.55
2019-06-27T16:52:52.646Z,32.55
2019-06-27T16:55:23.474Z,32.38
2019-06-27T16:57:54.322Z,34.03
2019-06-27T17:00:29.998Z,34.03
2019-06-27T17:03:01.681Z,33.55
2019-06-27T17:05:31.982Z,33.63
2019-06-27T17:08:02.604Z,33.44
2019-06-27T17:10:33.219Z,33.65
2019-06-27T17:13:03.880Z,33.40
2019-06-27T17:15:34.443Z,33.10
2019-06-27T17:18:05.137Z,33.18
2019-06-27T17:20:35.996Z,33.80
2019-06-27T17:23:06.938Z,33.80
2019-06-27T17:25:38.077Z,33.72
2019-06-27T17:30:45.295Z,34.42
2019-06-27T17:33:15.956Z,35.08
2019-06-27T17:35:46.805Z,35.08
2019-06-27T17:38:17.462Z,35.17
2019-06-27T17:40:48.063Z,35.46
2019-06-27T17:43:18.724Z,35.72
2019-06-27T17:45:50.977Z,36.25
2019-06-27T17:48:21.627Z,36.92
2019-06-27T17:50:52.518Z,37.44
2019-06-27T17:53:23.149Z,37.44
2019-06-27T17:55:53.985Z,38.24
2019-06-27T17:58:24.418Z,38.50
2019-06-27T18:00:55.190Z,38.62
2019-06-27T18:03:25.626Z,39.10
2019-06-27T18:06:01.395Z,39.26
2019-06-27T18:08:32.074Z,39.26
2019-06-27T18:11:02.958Z,39.91
2019-06-27T18:13:33.265Z,39.78
2019-06-27T18:16:03.700Z,39.96
2019-06-27T18:18:34.343Z,40.14
2019-06-27T18:21:05.179Z,40.48
2019-06-27T18:23:35.582Z,40.54
2019-06-27T18:26:06.396Z,40.60
2019-06-27T18:28:36.920Z,40.83
2019-06-27T18:31:07.580Z,40.83
2019-06-27T18:33:38.607Z,41.39
2019-06-27T18:36:09.337Z,41.56
2019-06-27T18:38:40.027Z,41.85
2019-06-27T18:41:12.875Z,42.08
2019-06-27T18:43:44.339Z,42.55
2019-06-27T18:46:15.019Z,43.12
2019-06-27T18:48:47.280Z,43.61
2019-06-27T18:51:17.742Z,44.07
2019-06-27T18:53:48.510Z,44.71
2019-06-27T18:56:19.198Z,44.88
2019-06-27T18:58:51.594Z,45.57
2019-06-27T19:01:22.525Z,46.63
2019-06-27T19:03:52.909Z,46.63
2019-06-27T19:06:23.603Z,47.49
2019-06-27T19:08:54.485Z,47.49
2019-06-27T19:11:25.134Z,48.59
2019-06-27T19:13:55.998Z,48.59
2019-06-27T19:16:26.615Z,48.73
2019-06-27T19:19:00.534Z,48.89
2019-06-27T19:21:47.150Z,49.08
2019-06-27T19:24:42.390Z,49.47
2019-06-27T19:27:13.024Z,49.95
2019-06-27T19:29:43.649Z,50.15
2019-06-27T19:32:14.268Z,50.19
2019-06-27T19:34:44.683Z,50.32
2019-06-27T19:37:16.509Z,50.92
2019-06-27T19:39:47.450Z,50.96
2019-06-27T19:42:18.130Z,51.08
2019-06-27T19:44:48.401Z,51.28
2019-06-27T19:47:19.054Z,51.43
2019-06-27T19:49:49.721Z,51.76
2019-06-27T19:52:20.575Z,52.26
2019-06-27T19:54:51.209Z,52.28
2019-06-27T19:57:22.111Z,52.59
2019-06-27T19:59:52.787Z,52.87
2019-06-27T20:02:23.450Z,53.00
2019-06-27T20:04:54.119Z,53.12
2019-06-27T20:07:24.748Z,53.34
2019-06-27T20:09:56.763Z,53.54
2019-06-27T20:12:27.389Z,53.65
2019-06-27T20:15:00.254Z,54.03
2019-06-27T20:17:34.018Z,54.20
2019-06-27T20:20:06.650Z,54.34
2019-06-27T20:22:38.613Z,54.64
2019-06-27T20:25:09.805Z,54.67
2019-06-27T20:27:40.207Z,55.07
2019-06-27T20:30:12.236Z,55.07
2019-06-27T20:32:43.352Z,55.59
2019-06-27T20:35:13.948Z,55.59
2019-06-27T20:37:47.659Z,55.32
2019-06-27T20:40:20.301Z,55.38
2019-06-27T20:42:51.063Z,56.41
2019-06-27T20:45:22.096Z,56.41
2019-06-27T20:47:55.145Z,56.09
2019-06-27T20:50:26.915Z,55.99
2019-06-27T20:52:57.645Z,56.02
2019-06-27T20:58:06.436Z,56.76
2019-06-27T21:00:37.328Z,57.06
2019-06-27T21:03:10.193Z,57.67
2019-06-27T21:05:40.498Z,58.00
2019-06-27T21:08:11.158Z,58.09
2019-06-27T21:10:43.077Z,58.22
2019-06-27T21:13:14.192Z,58.63
2019-06-27T21:15:46.087Z,58.89
2019-06-27T21:18:16.441Z,59.09
2019-06-27T21:20:48.075Z,59.19
2019-06-27T21:23:19.976Z,59.80
2019-06-27T21:25:50.510Z,59.91
2019-06-27T21:28:21.436Z,59.92
2019-06-27T21:30:52.201Z,59.92
2019-06-27T21:33:23.083Z,59.95
2019-06-27T21:35:53.680Z,60.17
2019-06-27T21:38:24.000Z,60.40
2019-06-27T21:40:55.109Z,60.56
2019-06-27T21:43:25.417Z,60.55
2019-06-27T21:45:56.008Z,60.76
2019-06-27T21:48:28.880Z,60.37
2019-06-27T21:50:59.609Z,60.32
2019-06-27T21:53:29.974Z,60.38
2019-06-27T21:56:02.010Z,60.40
2019-06-27T21:58:32.557Z,60.74
2019-06-27T22:01:03.535Z,61.00
2019-06-27T22:03:34.302Z,60.88
2019-06-27T22:06:04.953Z,60.88
2019-06-27T22:08:35.566Z,61.95
2019-06-27T22:11:05.843Z,61.97
2019-06-27T22:13:36.253Z,61.97
2019-06-27T22:16:06.704Z,62.74
2019-06-27T22:18:40.006Z,62.85
2019-06-27T22:21:10.564Z,63.08
2019-06-27T22:23:40.881Z,63.43
2019-06-27T22:26:13.127Z,63.77
2019-06-27T22:28:46.165Z,64.05
2019-06-27T22:31:17.052Z,64.08
2019-06-27T22:33:49.177Z,64.67
2019-06-27T22:36:19.769Z,64.23
2019-06-27T22:39:10.818Z,64.52
2019-06-27T22:41:59.180Z,64.83
2019-06-27T22:44:47.481Z,65.00
2019-06-27T22:47:35.713Z,65.26
2019-06-27T22:50:20.383Z,65.45
2019-06-27T22:53:10.105Z,65.79
2019-06-27T22:55:40.421Z,65.98
2019-06-27T22:58:11.003Z,65.98
2019-06-27T23:00:41.510Z,66.25
2019-06-27T23:03:13.444Z,66.36
2019-06-27T23:05:43.996Z,66.19
2019-06-27T23:08:15.550Z,66.78
2019-06-27T23:10:45.905Z,67.12
2019-06-27T23:13:18.829Z,67.04
2019-06-27T23:15:49.260Z,67.15
2019-06-27T23:18:21.634Z,67.68
2019-06-27T23:20:53.122Z,67.83
2019-06-27T23:23:24.837Z,68.00
2019-06-27T23:25:55.822Z,68.09
2019-06-27T23:28:27.497Z,68.56
2019-06-27T23:30:58.288Z,68.60
2019-06-27T23:33:30.540Z,68.85
2019-06-27T23:36:01.524Z,68.91
2019-06-27T23:38:32.208Z,68.94
2019-06-27T23:41:02.967Z,69.34
2019-06-27T23:43:33.865Z,69.37
2019-06-27T23:46:04.432Z,69.80
2019-06-27T23:48:35.163Z,69.94
2019-06-27T23:51:05.674Z,70.01
2019-06-27T23:53:36.368Z,70.10
2019-06-27T23:56:06.993Z,70.40
2019-06-27T23:58:37.700Z,70.77
